Terminal Aerodrome Forecast
Issued by NWS

Home | Current Version | Previous Version | Text Only | Print | Product List | Glossary On
Versions: 1 2 3 4 5 6 7 8 9 10 11 12 13 14 15 16 17 18 19 20 21 22 23 24 25 26 27 28
000
FTUS46 KOTX 221738
TAFPUW
TAF
KPUW 221738Z 2218/2318 01008KT P6SM FEW050 BKN100
     FM222200 34010KT P6SM VCTS SCT060CB BKN100
     FM230300 03003KT P6SM VCSH SCT060 BKN080
     FM230800 33005KT P6SM FEW070 BKN150
     FM231500 30006KT P6SM FEW050 BKN090=

USA.gov is the U.S. government's official web portal to all federal, state and local government web resources and services.